sensor_id;sensor_type;location;lat;lon;timestamp;temperature;humidity
4673;DHT22;61885;53.560;9.940;2023-01-15T00:00:36;6.60;99.90
4673;DHT22;61885;53.560;9.940;2023-01-15T00:03:05;6.60;99.90
4673;DHT22;61885;53.560;9.940;2023-01-15T00:05:35;6.60;99.90
4673;DHT22;61885;53.560;9.940;2023-01-15T00:08:07;6.50;99.90
4673;DHT22;61885;53.560;9.940;2023-01-15T00:10:37;6.60;99.90
4673;DHT22;61885;53.560;9.940;2023-01-15T00:13:09;6.50;99.90
4673;DHT22;61885;53.560;9.940;2023-01-15T00:15:41;6.50;99.90
4673;DHT22;61885;53.560;9.940;2023-01-15T00:18:11;6.50;99.90
4673;DHT22;61885;53.560;9.940;2023-01-15T00:20:42;6.50;99.90
4673;DHT22;61885;53.560;9.940;2023-01-15T00:23:12;6.50;99.90
4673;DHT22;61885;53.560;9.940;2023-01-15T00:26:02;6.50;99.90
4673;DHT22;61885;53.560;9.940;2023-01-15T00:28:50;6.50;99.90
4673;DHT22;61885;53.560;9.940;2023-01-15T00:31:21;6.40;99.90
4673;DHT22;61885;53.560;9.940;2023-01-15T00:33:50;6.40;99.90
4673;DHT22;61885;53.560;9.940;2023-01-15T00:36:24;6.40;99.90
4673;DHT22;61885;53.560;9.940;2023-01-15T00:38:54;6.40;99.90
4673;DHT22;61885;53.560;9.940;2023-01-15T00:41:24;6.40;99.90
4673;DHT22;61885;53.560;9.940;2023-01-15T00:43:56;6.40;99.90
4673;DHT22;61885;53.560;9.940;2023-01-15T00:46:27;6.40;99.90
4673;DHT22;61885;53.560;9.940;2023-01-15T00:49:00;6.40;99.90
4673;DHT22;61885;53.560;9.940;2023-01-15T00:51:29;6.40;99.90
4673;DHT22;61885;53.560;9.940;2023-01-15T00:53:59;6.40;99.90
4673;DHT22;61885;53.560;9.940;2023-01-15T00:56:29;6.40;99.90
4673;DHT22;61885;53.560;9.940;2023-01-15T00:59:04;6.40;99.90
4673;DHT22;61885;53.560;9.940;2023-01-15T01:01:34;6.40;99.90
4673;DHT22;61885;53.560;9.940;2023-01-15T01:04:06;6.40;99.90
4673;DHT22;61885;53.560;9.940;2023-01-15T01:06:36;6.40;99.90
4673;DHT22;61885;53.560;9.940;2023-01-15T01:09:06;6.40;99.90
4673;DHT22;61885;53.560;9.940;2023-01-15T01:11:36;6.40;99.90
4673;DHT22;61885;53.560;9.940;2023-01-15T01:14:09;6.40;99.90
4673;DHT22;61885;53.560;9.940;2023-01-15T01:16:46;6.40;99.90
4673;DHT22;61885;53.560;9.940;2023-01-15T01:19:18;6.40;99.90
4673;DHT22;61885;53.560;9.940;2023-01-15T01:21:50;6.40;99.90
4673;DHT22;61885;53.560;9.940;2023-01-15T01:24:28;6.40;99.90
4673;DHT22;61885;53.560;9.940;2023-01-15T01:26:58;6.50;99.90
4673;DHT22;61885;53.560;9.940;2023-01-15T01:29:31;6.40;99.90
4673;DHT22;61885;53.560;9.940;2023-01-15T01:32:01;6.40;99.90
4673;DHT22;61885;53.560;9.940;2023-01-15T01:34:31;6.40;99.90
4673;DHT22;61885;53.560;9.940;2023-01-15T01:37:02;6.40;99.90
4673;DHT22;61885;53.560;9.940;2023-01-15T01:39:32;6.40;99.90
4673;DHT22;61885;53.560;9.940;2023-01-15T01:42:11;6.50;99.90
4673;DHT22;61885;53.560;9.940;2023-01-15T01:45:08;6.50;99.90
4673;DHT22;61885;53.560;9.940;2023-01-15T01:47:43;6.40;99.90
4673;DHT22;61885;53.560;9.940;2023-01-15T01:50:13;6.50;99.90
4673;DHT22;61885;53.560;9.940;2023-01-15T01:52:46;6.50;99.90
4673;DHT22;61885;53.560;9.940;2023-01-15T01:55:19;6.50;99.90
4673;DHT22;61885;53.560;9.940;2023-01-15T01:57:56;6.50;99.90
4673;DHT22;61885;53.560;9.940;2023-01-15T02:00:32;6.50;99.90
4673;DHT22;61885;53.560;9.940;2023-01-15T02:03:04;6.50;99.90
4673;DHT22;61885;53.560;9.940;2023-01-15T02:05:38;6.50;99.90
4673;DHT22;61885;53.560;9.940;2023-01-15T02:08:09;6.60;99.90
4673;DHT22;61885;53.560;9.940;2023-01-15T02:10:39;6.60;99.90
4673;DHT22;61885;53.560;9.940;2023-01-15T02:13:13;6.50;99.90
4673;DHT22;61885;53.560;9.940;2023-01-15T02:15:51;6.50;99.90
4673;DHT22;61885;53.560;9.940;2023-01-15T02:18:30;6.50;99.90
4673;DHT22;61885;53.560;9.940;2023-01-15T02:21:05;6.50;99.90
4673;DHT22;61885;53.560;9.940;2023-01-15T02:23:49;6.50;99.90
4673;DHT22;61885;53.560;9.940;2023-01-15T02:29:36;6.50;99.90
4673;DHT22;61885;53.560;9.940;2023-01-15T02:32:11;6.60;99.90
4673;DHT22;61885;53.560;9.940;2023-01-15T02:34:45;6.50;99.90
4673;DHT22;61885;53.560;9.940;2023-01-15T02:37:20;6.50;99.90
4673;DHT22;61885;53.560;9.940;2023-01-15T02:39:54;6.50;99.90
4673;DHT22;61885;53.560;9.940;2023-01-15T02:42:27;6.50;99.90
4673;DHT22;61885;53.560;9.940;2023-01-15T02:45:05;6.50;99.90
4673;DHT22;61885;53.560;9.940;2023-01-15T02:47:42;6.50;99.90
4673;DHT22;61885;53.560;9.940;2023-01-15T02:50:25;6.50;99.90
4673;DHT22;61885;53.560;9.940;2023-01-15T02:53:02;6.60;99.90
4673;DHT22;61885;53.560;9.940;2023-01-15T02:55:37;6.60;99.90
4673;DHT22;61885;53.560;9.940;2023-01-15T02:58:12;6.60;99.90
4673;DHT22;61885;53.560;9.940;2023-01-15T03:00:48;6.60;99.90
4673;DHT22;61885;53.560;9.940;2023-01-15T03:03:24;6.60;99.90
4673;DHT22;61885;53.560;9.940;2023-01-15T03:05:59;6.50;99.90
4673;DHT22;61885;53.560;9.940;2023-01-15T03:08:31;6.60;99.90
4673;DHT22;61885;53.560;9.940;2023-01-15T03:11:05;6.60;99.90
4673;DHT22;61885;53.560;9.940;2023-01-15T03:13:43;6.60;99.90
4673;DHT22;61885;53.560;9.940;2023-01-15T03:16:23;6.60;99.90
4673;DHT22;61885;53.560;9.940;2023-01-15T03:19:14;6.60;99.90
4673;DHT22;61885;53.560;9.940;2023-01-15T03:21:52;6.60;99.90
4673;DHT22;61885;53.560;9.940;2023-01-15T03:24:30;6.60;99.90
4673;DHT22;61885;53.560;9.940;2023-01-15T03:27:02;6.60;99.90
4673;DHT22;61885;53.560;9.940;2023-01-15T03:29:35;6.60;99.90
4673;DHT22;61885;53.560;9.940;2023-01-15T03:32:11;6.60;99.90
4673;DHT22;61885;53.560;9.940;2023-01-15T03:34:45;6.60;99.90
4673;DHT22;61885;53.560;9.940;2023-01-15T03:37:16;6.60;99.90
4673;DHT22;61885;53.560;9.940;2023-01-15T03:39:49;6.50;99.90
4673;DHT22;61885;53.560;9.940;2023-01-15T03:42:28;6.60;99.90
4673;DHT22;61885;53.560;9.940;2023-01-15T03:45:08;6.50;99.90
4673;DHT22;61885;53.560;9.940;2023-01-15T03:47:52;6.60;99.90
4673;DHT22;61885;53.560;9.940;2023-01-15T03:50:33;6.50;99.90
4673;DHT22;61885;53.560;9.940;2023-01-15T03:53:08;6.50;99.90
4673;DHT22;61885;53.560;9.940;2023-01-15T03:55:46;6.50;99.90
4673;DHT22;61885;53.560;9.940;2023-01-15T03:58:24;6.50;99.90
4673;DHT22;61885;53.560;9.940;2023-01-15T04:00:57;6.50;99.90
4673;DHT22;61885;53.560;9.940;2023-01-15T04:03:32;6.50;99.90
4673;DHT22;61885;53.560;9.940;2023-01-15T04:06:03;6.50;99.90
4673;DHT22;61885;53.560;9.940;2023-01-15T04:08:37;6.50;99.90
4673;DHT22;61885;53.560;9.940;2023-01-15T04:11:08;6.50;99.90
4673;DHT22;61885;53.560;9.940;2023-01-15T04:13:37;6.50;99.90
4673;DHT22;61885;53.560;9.940;2023-01-15T04:16:07;6.50;99.90
4673;DHT22;61885;53.560;9.940;2023-01-15T04:18:41;6.50;99.90
4673;DHT22;61885;53.560;9.940;2023-01-15T04:21:11;6.50;99.90
4673;DHT22;61885;53.560;9.940;2023-01-15T04:23:42;6.50;99.90
4673;DHT22;61885;53.560;9.940;2023-01-15T04:26:12;6.50;99.90
4673;DHT22;61885;53.560;9.940;2023-01-15T04:28:42;6.50;99.90
4673;DHT22;61885;53.560;9.940;2023-01-15T04:31:12;6.40;99.90
4673;DHT22;61885;53.560;9.940;2023-01-15T04:33:44;6.50;99.90
4673;DHT22;61885;53.560;9.940;2023-01-15T04:36:14;6.50;99.90
4673;DHT22;61885;53.560;9.940;2023-01-15T04:38:44;6.40;99.90
4673;DHT22;61885;53.560;9.940;2023-01-15T04:41:14;6.50;99.90
4673;DHT22;61885;53.560;9.940;2023-01-15T04:44:08;6.40;99.90
4673;DHT22;61885;53.560;9.940;2023-01-15T04:46:39;6.40;99.90
4673;DHT22;61885;53.560;9.940;2023-01-15T04:49:13;6.40;99.90
4673;DHT22;61885;53.560;9.940;2023-01-15T04:51:43;6.50;99.90
4673;DHT22;61885;53.560;9.940;2023-01-15T04:54:14;6.40;99.90
4673;DHT22;61885;53.560;9.940;2023-01-15T04:56:46;6.40;99.90
4673;DHT22;61885;53.560;9.940;2023-01-15T04:59:17;6.40;99.90
4673;DHT22;61885;53.560;9.940;2023-01-15T05:01:48;6.40;99.90
4673;DHT22;61885;53.560;9.940;2023-01-15T05:04:24;6.40;99.90
4673;DHT22;61885;53.560;9.940;2023-01-15T05:06:53;6.40;99.90
4673;DHT22;61885;53.560;9.940;2023-01-15T05:09:23;6.40;99.90
4673;DHT22;61885;53.560;9.940;2023-01-15T05:11:53;6.40;99.90
4673;DHT22;61885;53.560;9.940;2023-01-15T05:14:23;6.50;99.90
4673;DHT22;61885;53.560;9.940;2023-01-15T05:16:53;6.50;99.90
4673;DHT22;61885;53.560;9.940;2023-01-15T05:19:26;6.50;99.90
4673;DHT22;61885;53.560;9.940;2023-01-15T05:21:55;6.50;99.90
4673;DHT22;61885;53.560;9.940;2023-01-15T05:24:25;6.50;99.90
4673;DHT22;61885;53.560;9.940;2023-01-15T05:26:55;6.50;99.90
4673;DHT22;61885;53.560;9.940;2023-01-15T05:29:25;6.50;99.90
4673;DHT22;61885;53.560;9.940;2023-01-15T05:31:55;6.50;99.90
4673;DHT22;61885;53.560;9.940;2023-01-15T05:34:27;6.50;99.90
4673;DHT22;61885;53.560;9.940;2023-01-15T05:36:57;6.50;99.90
4673;DHT22;61885;53.560;9.940;2023-01-15T05:39:27;6.50;99.90
4673;DHT22;61885;53.560;9.940;2023-01-15T05:41:57;6.50;99.90
4673;DHT22;61885;53.560;9.940;2023-01-15T05:44:29;6.40;99.90
4673;DHT22;61885;53.560;9.940;2023-01-15T05:47:00;6.40;99.90
4673;DHT22;61885;53.560;9.940;2023-01-15T05:49:36;6.40;99.90
4673;DHT22;61885;53.560;9.940;2023-01-15T05:52:08;6.30;99.90
4673;DHT22;61885;53.560;9.940;2023-01-15T05:54:38;6.30;99.90
4673;DHT22;61885;53.560;9.940;2023-01-15T05:57:10;6.30;99.90
4673;DHT22;61885;53.560;9.940;2023-01-15T05:59:41;6.30;99.90
4673;DHT22;61885;53.560;9.940;2023-01-15T06:02:11;6.30;99.90
4673;DHT22;61885;53.560;9.940;2023-01-15T06:04:43;6.30;99.90
4673;DHT22;61885;53.560;9.940;2023-01-15T06:07:13;6.30;99.90
4673;DHT22;61885;53.560;9.940;2023-01-15T06:09:43;6.30;99.90
4673;DHT22;61885;53.560;9.940;2023-01-15T06:12:13;6.30;99.90
4673;DHT22;61885;53.560;9.940;2023-01-15T06:14:43;6.30;99.90
4673;DHT22;61885;53.560;9.940;2023-01-15T06:17:12;6.40;99.90
4673;DHT22;61885;53.560;9.940;2023-01-15T06:19:45;6.40;99.90
4673;DHT22;61885;53.560;9.940;2023-01-15T06:22:15;6.40;99.90
4673;DHT22;61885;53.560;9.940;2023-01-15T06:24:44;6.40;99.90
4673;DHT22;61885;53.560;9.940;2023-01-15T06:27:14;6.40;99.90
4673;DHT22;61885;53.560;9.940;2023-01-15T06:29:43;6.40;99.90
4673;DHT22;61885;53.560;9.940;2023-01-15T06:32:13;6.50;99.90
4673;DHT22;61885;53.560;9.940;2023-01-15T06:34:45;6.40;99.90
4673;DHT22;61885;53.560;9.940;2023-01-15T06:37:15;6.50;99.90
4673;DHT22;61885;53.560;9.940;2023-01-15T06:39:46;6.50;99.90
4673;DHT22;61885;53.560;9.940;2023-01-15T06:42:16;6.50;99.90
4673;DHT22;61885;53.560;9.940;2023-01-15T06:44:58;6.50;99.90
4673;DHT22;61885;53.560;9.940;2023-01-15T06:47:40;6.50;99.90
4673;DHT22;61885;53.560;9.940;2023-01-15T06:50:14;6.60;99.90
4673;DHT22;61885;53.560;9.940;2023-01-15T06:52:44;6.60;99.90
4673;DHT22;61885;53.560;9.940;2023-01-15T06:55:14;6.60;99.90
4673;DHT22;61885;53.560;9.940;2023-01-15T06:57:45;6.50;99.90
4673;DHT22;61885;53.560;9.940;2023-01-15T07:00:17;6.50;99.90
4673;DHT22;61885;53.560;9.940;2023-01-15T07:02:48;6.60;99.90
4673;DHT22;61885;53.560;9.940;2023-01-15T07:05:22;6.60;99.90
4673;DHT22;61885;53.560;9.940;2023-01-15T07:07:51;6.60;99.90
4673;DHT22;61885;53.560;9.940;2023-01-15T07:10:21;6.60;99.90
4673;DHT22;61885;53.560;9.940;2023-01-15T07:12:51;6.50;99.90
4673;DHT22;61885;53.560;9.940;2023-01-15T07:15:21;6.60;99.90
4673;DHT22;61885;53.560;9.940;2023-01-15T07:17:53;6.60;99.90
4673;DHT22;61885;53.560;9.940;2023-01-15T07:20:26;6.60;99.90
4673;DHT22;61885;53.560;9.940;2023-01-15T07:22:56;6.60;99.90
4673;DHT22;61885;53.560;9.940;2023-01-15T07:25:25;6.60;99.90
4673;DHT22;61885;53.560;9.940;2023-01-15T07:27:58;6.60;99.90
4673;DHT22;61885;53.560;9.940;2023-01-15T07:30:27;6.50;99.90
4673;DHT22;61885;53.560;9.940;2023-01-15T07:32:59;6.50;99.90
4673;DHT22;61885;53.560;9.940;2023-01-15T07:35:44;6.50;99.90
4673;DHT22;61885;53.560;9.940;2023-01-15T07:38:13;6.50;99.90
4673;DHT22;61885;53.560;9.940;2023-01-15T07:40:43;6.50;99.90
4673;DHT22;61885;53.560;9.940;2023-01-15T07:43:33;6.50;99.90
4673;DHT22;61885;53.560;9.940;2023-01-15T07:46:15;6.50;99.90
4673;DHT22;61885;53.560;9.940;2023-01-15T07:49:10;6.50;99.90
4673;DHT22;61885;53.560;9.940;2023-01-15T07:51:58;6.50;99.90
4673;DHT22;61885;53.560;9.940;2023-01-15T07:54:32;6.40;99.90
4673;DHT22;61885;53.560;9.940;2023-01-15T07:57:10;6.40;99.90
4673;DHT22;61885;53.560;9.940;2023-01-15T07:59:40;6.40;99.90
4673;DHT22;61885;53.560;9.940;2023-01-15T08:02:12;6.40;99.90
4673;DHT22;61885;53.560;9.940;2023-01-15T08:04:52;6.40;99.90
4673;DHT22;61885;53.560;9.940;2023-01-15T08:07:47;6.40;99.90
4673;DHT22;61885;53.560;9.940;2023-01-15T08:10:24;6.50;99.90
4673;DHT22;61885;53.560;9.940;2023-01-15T08:12:53;6.40;99.90
4673;DHT22;61885;53.560;9.940;2023-01-15T08:15:38;6.40;99.90
4673;DHT22;61885;53.560;9.940;2023-01-15T08:18:09;6.30;99.90
4673;DHT22;61885;53.560;9.940;2023-01-15T08:20:39;6.40;99.90
4673;DHT22;61885;53.560;9.940;2023-01-15T08:23:17;6.40;99.90
4673;DHT22;61885;53.560;9.940;2023-01-15T08:25:47;6.40;99.90
4673;DHT22;61885;53.560;9.940;2023-01-15T08:28:16;6.50;99.90
4673;DHT22;61885;53.560;9.940;2023-01-15T08:30:46;6.40;99.90
4673;DHT22;61885;53.560;9.940;2023-01-15T08:33:16;6.40;99.90
4673;DHT22;61885;53.560;9.940;2023-01-15T08:35:48;6.40;99.90
4673;DHT22;61885;53.560;9.940;2023-01-15T08:38:20;6.40;99.90
4673;DHT22;61885;53.560;9.940;2023-01-15T08:40:52;6.30;99.90
4673;DHT22;61885;53.560;9.940;2023-01-15T08:43:33;6.40;99.90
4673;DHT22;61885;53.560;9.940;2023-01-15T08:46:04;6.30;99.90
4673;DHT22;61885;53.560;9.940;2023-01-15T08:48:34;6.20;99.80
4673;DHT22;61885;53.560;9.940;2023-01-15T08:51:04;6.20;99.00
4673;DHT22;61885;53.560;9.940;2023-01-15T08:53:37;6.20;99.30
4673;DHT22;61885;53.560;9.940;2023-01-15T08:56:11;6.20;99.90
4673;DHT22;61885;53.560;9.940;2023-01-15T08:58:50;6.20;99.80
4673;DHT22;61885;53.560;9.940;2023-01-15T09:01:20;6.20;99.90
4673;DHT22;61885;53.560;9.940;2023-01-15T09:03:50;6.20;99.90
4673;DHT22;61885;53.560;9.940;2023-01-15T09:06:21;6.20;99.80
4673;DHT22;61885;53.560;9.940;2023-01-15T09:08:53;6.20;99.90
4673;DHT22;61885;53.560;9.940;2023-01-15T09:11:23;6.20;99.90
4673;DHT22;61885;53.560;9.940;2023-01-15T09:13:54;6.20;99.90
4673;DHT22;61885;53.560;9.940;2023-01-15T09:16:24;6.20;99.50
4673;DHT22;61885;53.560;9.940;2023-01-15T09:18:56;6.10;99.80
4673;DHT22;61885;53.560;9.940;2023-01-15T09:21:26;6.10;99.90
4673;DHT22;61885;53.560;9.940;2023-01-15T09:23:58;6.10;99.80
4673;DHT22;61885;53.560;9.940;2023-01-15T09:26:31;6.10;99.40
4673;DHT22;61885;53.560;9.940;2023-01-15T09:29:02;6.10;99.70
4673;DHT22;61885;53.560;9.940;2023-01-15T09:31:32;6.10;98.90
4673;DHT22;61885;53.560;9.940;2023-01-15T09:34:02;6.10;99.00
4673;DHT22;61885;53.560;9.940;2023-01-15T09:36:34;6.20;97.30
4673;DHT22;61885;53.560;9.940;2023-01-15T09:39:08;6.20;95.50
4673;DHT22;61885;53.560;9.940;2023-01-15T09:41:56;6.30;95.50
4673;DHT22;61885;53.560;9.940;2023-01-15T09:44:47;6.20;94.10
4673;DHT22;61885;53.560;9.940;2023-01-15T09:47:26;6.30;91.00
4673;DHT22;61885;53.560;9.940;2023-01-15T09:50:09;6.30;84.60
4673;DHT22;61885;53.560;9.940;2023-01-15T09:55:47;6.40;79.00
4673;DHT22;61885;53.560;9.940;2023-01-15T09:58:24;6.50;73.30
4673;DHT22;61885;53.560;9.940;2023-01-15T10:01:03;6.60;72.00
4673;DHT22;61885;53.560;9.940;2023-01-15T10:03:38;6.60;66.20
4673;DHT22;61885;53.560;9.940;2023-01-15T10:06:14;6.70;64.10
4673;DHT22;61885;53.560;9.940;2023-01-15T10:08:46;6.70;60.10
4673;DHT22;61885;53.560;9.940;2023-01-15T10:11:37;6.70;57.40
4673;DHT22;61885;53.560;9.940;2023-01-15T10:14:31;6.70;54.60
4673;DHT22;61885;53.560;9.940;2023-01-15T10:17:21;6.70;53.00
4673;DHT22;61885;53.560;9.940;2023-01-15T10:19:52;6.80;52.10
4673;DHT22;61885;53.560;9.940;2023-01-15T10:22:33;6.90;54.00
4673;DHT22;61885;53.560;9.940;2023-01-15T10:25:14;6.80;51.00
4673;DHT22;61885;53.560;9.940;2023-01-15T10:27:50;6.80;50.10
4673;DHT22;61885;53.560;9.940;2023-01-15T10:30:27;6.80;47.90
4673;DHT22;61885;53.560;9.940;2023-01-15T10:33:11;6.80;47.90
4673;DHT22;61885;53.560;9.940;2023-01-15T10:35:54;6.90;49.50
4673;DHT22;61885;53.560;9.940;2023-01-15T10:38:39;6.80;48.00
4673;DHT22;61885;53.560;9.940;2023-01-15T10:41:23;6.80;44.40
4673;DHT22;61885;53.560;9.940;2023-01-15T10:44:10;6.90;42.60
4673;DHT22;61885;53.560;9.940;2023-01-15T10:46:50;6.80;40.30
4673;DHT22;61885;53.560;9.940;2023-01-15T10:49:25;6.80;39.00
4673;DHT22;61885;53.560;9.940;2023-01-15T10:51:58;6.80;39.40
4673;DHT22;61885;53.560;9.940;2023-01-15T10:54:35;6.80;39.40
4673;DHT22;61885;53.560;9.940;2023-01-15T10:57:10;6.70;39.30
4673;DHT22;61885;53.560;9.940;2023-01-15T10:59:47;6.80;39.30
4673;DHT22;61885;53.560;9.940;2023-01-15T11:02:24;6.90;38.50
4673;DHT22;61885;53.560;9.940;2023-01-15T11:04:54;6.90;38.30
4673;DHT22;61885;53.560;9.940;2023-01-15T11:07:32;6.90;34.80
4673;DHT22;61885;53.560;9.940;2023-01-15T11:10:08;6.90;35.60
4673;DHT22;61885;53.560;9.940;2023-01-15T11:12:39;6.80;34.90
4673;DHT22;61885;53.560;9.940;2023-01-15T11:15:25;6.80;36.10
4673;DHT22;61885;53.560;9.940;2023-01-15T11:18:16;6.90;36.20
4673;DHT22;61885;53.560;9.940;2023-01-15T11:21:10;6.80;34.70
4673;DHT22;61885;53.560;9.940;2023-01-15T11:23:39;6.90;34.60
4673;DHT22;61885;53.560;9.940;2023-01-15T11:26:16;6.90;34.90
4673;DHT22;61885;53.560;9.940;2023-01-15T11:28:48;6.80;34.80
4673;DHT22;61885;53.560;9.940;2023-01-15T11:31:21;6.80;36.00
4673;DHT22;61885;53.560;9.940;2023-01-15T11:33:58;6.80;37.90
4673;DHT22;61885;53.560;9.940;2023-01-15T11:36:32;6.50;48.50
4673;DHT22;61885;53.560;9.940;2023-01-15T11:39:02;6.30;68.80
4673;DHT22;61885;53.560;9.940;2023-01-15T11:41:33;6.20;73.70
4673;DHT22;61885;53.560;9.940;2023-01-15T11:44:19;6.10;79.40
4673;DHT22;61885;53.560;9.940;2023-01-15T11:47:09;6.20;74.50
4673;DHT22;61885;53.560;9.940;2023-01-15T11:49:53;6.20;74.20
4673;DHT22;61885;53.560;9.940;2023-01-15T11:52:38;6.00;77.80
4673;DHT22;61885;53.560;9.940;2023-01-15T11:55:12;5.80;91.90
4673;DHT22;61885;53.560;9.940;2023-01-15T11:57:43;5.50;93.70
4673;DHT22;61885;53.560;9.940;2023-01-15T12:00:21;5.20;95.30
4673;DHT22;61885;53.560;9.940;2023-01-15T12:02:58;4.90;99.90
4673;DHT22;61885;53.560;9.940;2023-01-15T12:05:33;4.50;99.90
4673;DHT22;61885;53.560;9.940;2023-01-15T12:08:16;4.50;99.90
4673;DHT22;61885;53.560;9.940;2023-01-15T12:10:53;4.50;99.90
4673;DHT22;61885;53.560;9.940;2023-01-15T12:13:43;4.60;99.90
4673;DHT22;61885;53.560;9.940;2023-01-15T12:16:22;4.60;99.90
4673;DHT22;61885;53.560;9.940;2023-01-15T12:18:58;4.70;99.90
4673;DHT22;61885;53.560;9.940;2023-01-15T12:21:46;4.80;99.90
4673;DHT22;61885;53.560;9.940;2023-01-15T12:24:38;4.80;99.10
4673;DHT22;61885;53.560;9.940;2023-01-15T12:27:28;4.80;99.90
4673;DHT22;61885;53.560;9.940;2023-01-15T12:30:03;4.80;99.90
4673;DHT22;61885;53.560;9.940;2023-01-15T12:32:41;5.10;99.90
4673;DHT22;61885;53.560;9.940;2023-01-15T12:35:21;5.00;99.90
4673;DHT22;61885;53.560;9.940;2023-01-15T12:37:57;5.00;99.90
4673;DHT22;61885;53.560;9.940;2023-01-15T12:40:31;5.00;99.90
4673;DHT22;61885;53.560;9.940;2023-01-15T12:43:16;5.10;99.90
4673;DHT22;61885;53.560;9.940;2023-01-15T12:46:01;5.20;99.90
4673;DHT22;61885;53.560;9.940;2023-01-15T12:48:38;5.30;99.90
4673;DHT22;61885;53.560;9.940;2023-01-15T12:51:21;5.40;99.90
4673;DHT22;61885;53.560;9.940;2023-01-15T12:53:56;5.60;99.90
4673;DHT22;61885;53.560;9.940;2023-01-15T12:56:31;5.70;99.90
4673;DHT22;61885;53.560;9.940;2023-01-15T12:59:09;5.80;99.90
4673;DHT22;61885;53.560;9.940;2023-01-15T13:01:48;6.00;99.90
4673;DHT22;61885;53.560;9.940;2023-01-15T13:04:23;6.00;99.90
4673;DHT22;61885;53.560;9.940;2023-01-15T13:07:02;6.00;99.90
4673;DHT22;61885;53.560;9.940;2023-01-15T13:09:40;6.00;99.90
4673;DHT22;61885;53.560;9.940;2023-01-15T13:12:14;6.10;99.20
4673;DHT22;61885;53.560;9.940;2023-01-15T13:14:46;6.00;97.90
4673;DHT22;61885;53.560;9.940;2023-01-15T13:17:24;6.10;97.60
4673;DHT22;61885;53.560;9.940;2023-01-15T13:20:39;6.10;98.00
4673;DHT22;61885;53.560;9.940;2023-01-15T13:23:55;6.10;96.40
4673;DHT22;61885;53.560;9.940;2023-01-15T13:27:04;6.30;95.50
4673;DHT22;61885;53.560;9.940;2023-01-15T13:29:49;6.20;93.00
4673;DHT22;61885;53.560;9.940;2023-01-15T13:32:24;6.20;92.90
4673;DHT22;61885;53.560;9.940;2023-01-15T13:35:04;6.20;90.90
4673;DHT22;61885;53.560;9.940;2023-01-15T13:37:50;6.30;89.40
4673;DHT22;61885;53.560;9.940;2023-01-15T13:40:29;6.40;87.40
4673;DHT22;61885;53.560;9.940;2023-01-15T13:43:06;6.40;87.00
4673;DHT22;61885;53.560;9.940;2023-01-15T13:45:42;6.40;85.40
4673;DHT22;61885;53.560;9.940;2023-01-15T13:48:23;6.40;82.50
4673;DHT22;61885;53.560;9.940;2023-01-15T13:50:55;6.50;76.20
4673;DHT22;61885;53.560;9.940;2023-01-15T13:53:29;6.50;73.60
4673;DHT22;61885;53.560;9.940;2023-01-15T13:56:05;6.50;73.40
4673;DHT22;61885;53.560;9.940;2023-01-15T13:58:52;6.60;70.70
4673;DHT22;61885;53.560;9.940;2023-01-15T14:01:24;6.70;69.40
4673;DHT22;61885;53.560;9.940;2023-01-15T14:04:05;6.70;68.00
4673;DHT22;61885;53.560;9.940;2023-01-15T14:06:38;6.70;65.80
4673;DHT22;61885;53.560;9.940;2023-01-15T14:09:13;6.30;66.50
4673;DHT22;61885;53.560;9.940;2023-01-15T14:11:59;6.70;62.80
4673;DHT22;61885;53.560;9.940;2023-01-15T14:17:59;6.70;61.90
4673;DHT22;61885;53.560;9.940;2023-01-15T14:20:39;6.70;64.80
4673;DHT22;61885;53.560;9.940;2023-01-15T14:23:28;6.70;63.60
4673;DHT22;61885;53.560;9.940;2023-01-15T14:26:10;6.70;60.00
4673;DHT22;61885;53.560;9.940;2023-01-15T14:28:59;6.70;60.50
4673;DHT22;61885;53.560;9.940;2023-01-15T14:31:40;6.80;58.40
4673;DHT22;61885;53.560;9.940;2023-01-15T14:34:22;6.80;58.70
4673;DHT22;61885;53.560;9.940;2023-01-15T14:36:56;6.80;58.70
4673;DHT22;61885;53.560;9.940;2023-01-15T14:39:35;6.80;56.70
4673;DHT22;61885;53.560;9.940;2023-01-15T14:42:10;6.80;55.80
4673;DHT22;61885;53.560;9.940;2023-01-15T14:45:01;6.80;53.20
4673;DHT22;61885;53.560;9.940;2023-01-15T14:47:34;6.90;53.40
4673;DHT22;61885;53.560;9.940;2023-01-15T14:50:25;6.80;53.50
4673;DHT22;61885;53.560;9.940;2023-01-15T14:53:01;6.80;53.10
4673;DHT22;61885;53.560;9.940;2023-01-15T14:55:37;6.90;55.20
4673;DHT22;61885;53.560;9.940;2023-01-15T14:58:19;6.80;56.30
4673;DHT22;61885;53.560;9.940;2023-01-15T15:01:03;6.90;53.80
4673;DHT22;61885;53.560;9.940;2023-01-15T15:03:47;6.90;55.00
4673;DHT22;61885;53.560;9.940;2023-01-15T15:06:22;6.80;56.70
4673;DHT22;61885;53.560;9.940;2023-01-15T15:08:56;6.80;59.80
4673;DHT22;61885;53.560;9.940;2023-01-15T15:11:34;6.80;61.30
4673;DHT22;61885;53.560;9.940;2023-01-15T15:14:17;6.70;67.00
4673;DHT22;61885;53.560;9.940;2023-01-15T15:16:51;6.60;70.00
4673;DHT22;61885;53.560;9.940;2023-01-15T15:19:27;6.60;80.90
4673;DHT22;61885;53.560;9.940;2023-01-15T15:22:01;6.40;90.30
4673;DHT22;61885;53.560;9.940;2023-01-15T15:24:33;6.30;92.40
4673;DHT22;61885;53.560;9.940;2023-01-15T15:27:17;6.30;95.20
4673;DHT22;61885;53.560;9.940;2023-01-15T15:29:49;6.30;94.40
4673;DHT22;61885;53.560;9.940;2023-01-15T15:32:24;6.10;99.90
4673;DHT22;61885;53.560;9.940;2023-01-15T15:34:54;6.00;99.90
4673;DHT22;61885;53.560;9.940;2023-01-15T15:37:25;6.00;99.90
4673;DHT22;61885;53.560;9.940;2023-01-15T15:40:00;5.80;99.90
4673;DHT22;61885;53.560;9.940;2023-01-15T15:42:33;5.60;99.90
4673;DHT22;61885;53.560;9.940;2023-01-15T15:45:29;5.40;99.90
4673;DHT22;61885;53.560;9.940;2023-01-15T15:48:19;5.20;99.90
4673;DHT22;61885;53.560;9.940;2023-01-15T15:51:02;5.20;99.90
4673;DHT22;61885;53.560;9.940;2023-01-15T15:53:31;5.00;99.90
4673;DHT22;61885;53.560;9.940;2023-01-15T15:56:03;4.90;99.90
4673;DHT22;61885;53.560;9.940;2023-01-15T15:58:41;4.90;99.90
4673;DHT22;61885;53.560;9.940;2023-01-15T16:01:12;4.90;99.90
4673;DHT22;61885;53.560;9.940;2023-01-15T16:03:49;4.90;99.90
4673;DHT22;61885;53.560;9.940;2023-01-15T16:06:25;4.90;99.90
4673;DHT22;61885;53.560;9.940;2023-01-15T16:08:57;4.80;99.90
4673;DHT22;61885;53.560;9.940;2023-01-15T16:11:30;4.90;99.90
4673;DHT22;61885;53.560;9.940;2023-01-15T16:14:05;4.90;99.90
4673;DHT22;61885;53.560;9.940;2023-01-15T16:16:38;4.90;99.90
4673;DHT22;61885;53.560;9.940;2023-01-15T16:19:14;4.80;99.90
4673;DHT22;61885;53.560;9.940;2023-01-15T16:21:46;4.80;99.90
4673;DHT22;61885;53.560;9.940;2023-01-15T16:24:27;4.80;99.90
4673;DHT22;61885;53.560;9.940;2023-01-15T16:27:03;4.80;99.90
4673;DHT22;61885;53.560;9.940;2023-01-15T16:29:35;4.80;99.90
4673;DHT22;61885;53.560;9.940;2023-01-15T16:32:13;4.70;99.90
4673;DHT22;61885;53.560;9.940;2023-01-15T16:34:45;4.70;99.90
4673;DHT22;61885;53.560;9.940;2023-01-15T16:37:25;4.70;99.90
4673;DHT22;61885;53.560;9.940;2023-01-15T16:39:57;4.70;99.90
4673;DHT22;61885;53.560;9.940;2023-01-15T16:42:31;4.70;99.90
4673;DHT22;61885;53.560;9.940;2023-01-15T16:45:19;4.70;99.90
4673;DHT22;61885;53.560;9.940;2023-01-15T16:48:08;4.70;99.90
4673;DHT22;61885;53.560;9.940;2023-01-15T16:50:49;4.70;99.90
4673;DHT22;61885;53.560;9.940;2023-01-15T16:53:31;4.60;99.90
4673;DHT22;61885;53.560;9.940;2023-01-15T16:56:25;4.70;99.90
4673;DHT22;61885;53.560;9.940;2023-01-15T16:58:58;4.60;99.90
4673;DHT22;61885;53.560;9.940;2023-01-15T17:01:35;4.60;99.90
4673;DHT22;61885;53.560;9.940;2023-01-15T17:04:17;4.60;99.90
4673;DHT22;61885;53.560;9.940;2023-01-15T17:06:57;4.60;99.90